logo
Search for airport 
image banner adimage banner adimage banner ad
image banner ad

FLJK - Jeki

Located in Jeki, Zambia

ICAO - , IATA - JEK

Data provided by Airmate  

General information

Coordinates: S15°37'60" E29°36'11"
Elevation is 1159 feet MSL.
Magnetic variation is -6° East
View others Airports in Lusaka Province

Operational data

Special qualification required
Current time UTC:
Current local time:
Weather at : - ( 0 km )
METAR: CYQZ 281306Z AUTO VRB02KT 5SM -SN OVC042 M08/M10 A2948 RMK SLP022
View NOTAMs / SUP AIP / TFR affecting this airport [VIEW]
Communications frequencies: [VIEW]

Runways:

RWY identifierQFULength (ft)Width (ft)SurfaceLDA (ft)
0556°3232105DIRT
23236°3232105DIRT

Airport contact information

Address: Jeki Zambia

Satellite view of FLJK